sensor_id;sensor_type;location;lat;lon;timestamp;P1;durP1;ratioP1;P2;durP2;ratioP2
72569;SDS011;60594;50.204;8.844;2023-09-30T00:02:19;9.60;;;5.10;;
72569;SDS011;60594;50.204;8.844;2023-09-30T00:04:46;9.48;;;5.65;;
72569;SDS011;60594;50.204;8.844;2023-09-30T00:07:12;10.30;;;5.05;;
72569;SDS011;60594;50.204;8.844;2023-09-30T00:09:38;10.35;;;5.50;;
72569;SDS011;60594;50.204;8.844;2023-09-30T00:12:06;12.13;;;5.30;;
72569;SDS011;60594;50.204;8.844;2023-09-30T00:14:33;9.65;;;5.28;;
72569;SDS011;60594;50.204;8.844;2023-09-30T00:16:59;8.95;;;5.20;;
72569;SDS011;60594;50.204;8.844;2023-09-30T00:19:26;10.15;;;5.32;;
72569;SDS011;60594;50.204;8.844;2023-09-30T00:21:52;11.02;;;5.38;;
72569;SDS011;60594;50.204;8.844;2023-09-30T00:24:19;10.10;;;5.00;;
72569;SDS011;60594;50.204;8.844;2023-09-30T00:26:45;9.52;;;5.20;;
72569;SDS011;60594;50.204;8.844;2023-09-30T00:29:12;8.82;;;4.90;;
72569;SDS011;60594;50.204;8.844;2023-09-30T00:31:38;9.60;;;5.00;;
72569;SDS011;60594;50.204;8.844;2023-09-30T00:36:34;8.80;;;4.88;;
72569;SDS011;60594;50.204;8.844;2023-09-30T00:39:01;8.35;;;4.80;;
72569;SDS011;60594;50.204;8.844;2023-09-30T00:41:27;10.75;;;5.53;;
72569;SDS011;60594;50.204;8.844;2023-09-30T00:43:54;9.85;;;4.90;;
72569;SDS011;60594;50.204;8.844;2023-09-30T00:46:27;8.65;;;4.55;;
72569;SDS011;60594;50.204;8.844;2023-09-30T00:48:57;11.30;;;4.97;;
72569;SDS011;60594;50.204;8.844;2023-09-30T00:51:25;9.95;;;5.22;;
72569;SDS011;60594;50.204;8.844;2023-09-30T00:53:53;10.05;;;5.32;;
72569;SDS011;60594;50.204;8.844;2023-09-30T00:56:23;8.93;;;4.93;;
72569;SDS011;60594;50.204;8.844;2023-09-30T00:58:52;8.68;;;5.15;;
72569;SDS011;60594;50.204;8.844;2023-09-30T01:01:19;10.10;;;4.70;;
72569;SDS011;60594;50.204;8.844;2023-09-30T01:03:47;9.55;;;4.68;;
72569;SDS011;60594;50.204;8.844;2023-09-30T01:06:13;9.43;;;4.53;;
72569;SDS011;60594;50.204;8.844;2023-09-30T01:08:40;9.90;;;4.75;;
72569;SDS011;60594;50.204;8.844;2023-09-30T01:11:07;11.00;;;5.05;;
72569;SDS011;60594;50.204;8.844;2023-09-30T01:13:35;8.02;;;4.30;;
72569;SDS011;60594;50.204;8.844;2023-09-30T01:16:08;9.15;;;4.35;;
72569;SDS011;60594;50.204;8.844;2023-09-30T01:18:39;8.05;;;4.13;;
72569;SDS011;60594;50.204;8.844;2023-09-30T01:21:08;8.93;;;4.10;;
72569;SDS011;60594;50.204;8.844;2023-09-30T01:23:35;8.02;;;4.07;;
72569;SDS011;60594;50.204;8.844;2023-09-30T01:26:03;8.93;;;4.32;;
72569;SDS011;60594;50.204;8.844;2023-09-30T01:28:30;7.55;;;4.18;;
72569;SDS011;60594;50.204;8.844;2023-09-30T01:30:57;11.60;;;4.32;;
72569;SDS011;60594;50.204;8.844;2023-09-30T01:33:24;7.65;;;3.63;;
72569;SDS011;60594;50.204;8.844;2023-09-30T01:35:51;6.45;;;3.83;;
72569;SDS011;60594;50.204;8.844;2023-09-30T01:38:17;9.52;;;4.43;;
72569;SDS011;60594;50.204;8.844;2023-09-30T01:40:44;9.35;;;3.92;;
72569;SDS011;60594;50.204;8.844;2023-09-30T01:43:10;9.23;;;4.25;;
72569;SDS011;60594;50.204;8.844;2023-09-30T01:45:40;9.77;;;3.90;;
72569;SDS011;60594;50.204;8.844;2023-09-30T01:48:07;8.68;;;3.80;;
72569;SDS011;60594;50.204;8.844;2023-09-30T01:50:37;11.50;;;4.20;;
72569;SDS011;60594;50.204;8.844;2023-09-30T01:53:05;10.85;;;4.40;;
72569;SDS011;60594;50.204;8.844;2023-09-30T01:55:35;11.57;;;4.10;;
72569;SDS011;60594;50.204;8.844;2023-09-30T01:58:04;8.52;;;3.72;;
72569;SDS011;60594;50.204;8.844;2023-09-30T02:00:30;8.45;;;3.85;;
72569;SDS011;60594;50.204;8.844;2023-09-30T02:02:57;10.05;;;3.95;;
72569;SDS011;60594;50.204;8.844;2023-09-30T02:05:25;7.30;;;3.63;;
72569;SDS011;60594;50.204;8.844;2023-09-30T02:07:51;8.13;;;4.07;;
72569;SDS011;60594;50.204;8.844;2023-09-30T02:10:18;8.38;;;3.70;;
72569;SDS011;60594;50.204;8.844;2023-09-30T02:12:46;10.70;;;3.90;;
72569;SDS011;60594;50.204;8.844;2023-09-30T02:15:13;7.47;;;3.40;;
72569;SDS011;60594;50.204;8.844;2023-09-30T02:17:40;9.88;;;4.00;;
72569;SDS011;60594;50.204;8.844;2023-09-30T02:20:11;8.32;;;3.83;;
72569;SDS011;60594;50.204;8.844;2023-09-30T02:22:42;5.88;;;3.45;;
72569;SDS011;60594;50.204;8.844;2023-09-30T02:25:09;8.85;;;3.80;;
72569;SDS011;60594;50.204;8.844;2023-09-30T02:27:39;7.00;;;3.95;;
72569;SDS011;60594;50.204;8.844;2023-09-30T02:30:09;8.02;;;3.20;;
72569;SDS011;60594;50.204;8.844;2023-09-30T02:32:40;8.05;;;3.60;;
72569;SDS011;60594;50.204;8.844;2023-09-30T02:35:07;7.38;;;3.50;;
72569;SDS011;60594;50.204;8.844;2023-09-30T02:37:34;8.65;;;3.65;;
72569;SDS011;60594;50.204;8.844;2023-09-30T02:40:03;9.95;;;4.53;;
72569;SDS011;60594;50.204;8.844;2023-09-30T02:42:31;9.52;;;4.05;;
72569;SDS011;60594;50.204;8.844;2023-09-30T02:45:00;8.63;;;4.25;;
72569;SDS011;60594;50.204;8.844;2023-09-30T02:47:27;7.25;;;3.40;;
72569;SDS011;60594;50.204;8.844;2023-09-30T02:49:56;7.65;;;3.65;;
72569;SDS011;60594;50.204;8.844;2023-09-30T02:52:24;9.50;;;3.63;;
72569;SDS011;60594;50.204;8.844;2023-09-30T02:54:51;10.27;;;3.88;;
72569;SDS011;60594;50.204;8.844;2023-09-30T02:57:20;6.97;;;3.58;;
72569;SDS011;60594;50.204;8.844;2023-09-30T02:59:47;7.72;;;3.50;;
72569;SDS011;60594;50.204;8.844;2023-09-30T03:02:14;8.52;;;3.75;;
72569;SDS011;60594;50.204;8.844;2023-09-30T03:04:42;7.90;;;3.97;;
72569;SDS011;60594;50.204;8.844;2023-09-30T03:07:10;9.02;;;4.10;;
72569;SDS011;60594;50.204;8.844;2023-09-30T03:09:36;7.32;;;3.78;;
72569;SDS011;60594;50.204;8.844;2023-09-30T03:12:03;9.32;;;4.40;;
72569;SDS011;60594;50.204;8.844;2023-09-30T03:14:30;11.02;;;4.85;;
72569;SDS011;60594;50.204;8.844;2023-09-30T03:16:58;9.25;;;4.43;;
72569;SDS011;60594;50.204;8.844;2023-09-30T03:19:25;12.35;;;4.50;;
72569;SDS011;60594;50.204;8.844;2023-09-30T03:21:51;9.48;;;4.30;;
72569;SDS011;60594;50.204;8.844;2023-09-30T03:24:18;9.05;;;4.57;;
72569;SDS011;60594;50.204;8.844;2023-09-30T03:26:44;10.63;;;4.72;;
72569;SDS011;60594;50.204;8.844;2023-09-30T03:29:11;9.20;;;5.20;;
72569;SDS011;60594;50.204;8.844;2023-09-30T03:31:38;11.43;;;5.75;;
72569;SDS011;60594;50.204;8.844;2023-09-30T03:34:05;9.90;;;4.68;;
72569;SDS011;60594;50.204;8.844;2023-09-30T03:36:32;12.43;;;5.47;;
72569;SDS011;60594;50.204;8.844;2023-09-30T03:38:59;11.60;;;5.75;;
72569;SDS011;60594;50.204;8.844;2023-09-30T03:41:26;10.05;;;5.25;;
72569;SDS011;60594;50.204;8.844;2023-09-30T03:43:52;12.05;;;5.38;;
72569;SDS011;60594;50.204;8.844;2023-09-30T03:46:20;9.82;;;5.53;;
72569;SDS011;60594;50.204;8.844;2023-09-30T03:48:46;11.95;;;5.50;;
72569;SDS011;60594;50.204;8.844;2023-09-30T03:51:13;11.10;;;5.18;;
72569;SDS011;60594;50.204;8.844;2023-09-30T03:56:11;10.73;;;5.63;;
72569;SDS011;60594;50.204;8.844;2023-09-30T03:58:38;11.82;;;5.10;;
72569;SDS011;60594;50.204;8.844;2023-09-30T04:03:33;8.40;;;4.75;;
72569;SDS011;60594;50.204;8.844;2023-09-30T04:06:01;10.95;;;5.45;;
72569;SDS011;60594;50.204;8.844;2023-09-30T04:08:30;11.30;;;5.50;;
72569;SDS011;60594;50.204;8.844;2023-09-30T04:10:59;12.45;;;5.40;;
72569;SDS011;60594;50.204;8.844;2023-09-30T04:13:26;10.20;;;4.93;;
72569;SDS011;60594;50.204;8.844;2023-09-30T04:15:55;9.98;;;5.18;;
72569;SDS011;60594;50.204;8.844;2023-09-30T04:18:24;10.68;;;5.05;;
72569;SDS011;60594;50.204;8.844;2023-09-30T04:23:18;11.82;;;5.72;;
72569;SDS011;60594;50.204;8.844;2023-09-30T04:25:48;10.35;;;5.05;;
72569;SDS011;60594;50.204;8.844;2023-09-30T04:28:15;16.50;;;6.13;;
72569;SDS011;60594;50.204;8.844;2023-09-30T04:30:47;9.77;;;4.57;;
72569;SDS011;60594;50.204;8.844;2023-09-30T04:33:15;10.15;;;5.55;;
72569;SDS011;60594;50.204;8.844;2023-09-30T04:35:43;12.27;;;5.75;;
72569;SDS011;60594;50.204;8.844;2023-09-30T04:38:11;11.15;;;5.78;;
72569;SDS011;60594;50.204;8.844;2023-09-30T04:40:39;10.93;;;5.40;;
72569;SDS011;60594;50.204;8.844;2023-09-30T04:43:05;10.77;;;5.60;;
72569;SDS011;60594;50.204;8.844;2023-09-30T04:45:32;9.60;;;5.22;;
72569;SDS011;60594;50.204;8.844;2023-09-30T04:47:59;11.20;;;5.32;;
72569;SDS011;60594;50.204;8.844;2023-09-30T04:50:25;10.07;;;5.25;;
72569;SDS011;60594;50.204;8.844;2023-09-30T04:52:51;9.77;;;5.18;;
72569;SDS011;60594;50.204;8.844;2023-09-30T04:55:19;13.10;;;5.75;;
72569;SDS011;60594;50.204;8.844;2023-09-30T04:57:46;12.93;;;5.68;;
72569;SDS011;60594;50.204;8.844;2023-09-30T05:00:14;12.45;;;6.13;;
72569;SDS011;60594;50.204;8.844;2023-09-30T05:02:43;12.50;;;6.18;;
72569;SDS011;60594;50.204;8.844;2023-09-30T05:07:37;12.45;;;5.78;;
72569;SDS011;60594;50.204;8.844;2023-09-30T05:10:04;10.73;;;5.18;;
72569;SDS011;60594;50.204;8.844;2023-09-30T05:12:37;10.13;;;5.20;;
72569;SDS011;60594;50.204;8.844;2023-09-30T05:15:04;13.27;;;6.85;;
72569;SDS011;60594;50.204;8.844;2023-09-30T05:19:58;9.65;;;5.15;;
72569;SDS011;60594;50.204;8.844;2023-09-30T05:22:25;10.30;;;5.53;;
72569;SDS011;60594;50.204;8.844;2023-09-30T05:24:51;10.45;;;5.13;;
72569;SDS011;60594;50.204;8.844;2023-09-30T05:27:18;10.73;;;5.45;;
72569;SDS011;60594;50.204;8.844;2023-09-30T05:29:45;10.38;;;5.30;;
72569;SDS011;60594;50.204;8.844;2023-09-30T05:32:12;9.98;;;5.43;;
72569;SDS011;60594;50.204;8.844;2023-09-30T05:34:40;9.65;;;5.43;;
72569;SDS011;60594;50.204;8.844;2023-09-30T05:37:06;11.13;;;5.60;;
72569;SDS011;60594;50.204;8.844;2023-09-30T05:39:33;12.35;;;5.70;;
72569;SDS011;60594;50.204;8.844;2023-09-30T05:41:59;9.73;;;5.10;;
72569;SDS011;60594;50.204;8.844;2023-09-30T05:44:26;12.65;;;5.72;;
72569;SDS011;60594;50.204;8.844;2023-09-30T05:46:53;11.43;;;5.95;;
72569;SDS011;60594;50.204;8.844;2023-09-30T05:49:20;12.50;;;5.90;;
72569;SDS011;60594;50.204;8.844;2023-09-30T05:51:47;10.90;;;5.57;;
72569;SDS011;60594;50.204;8.844;2023-09-30T05:54:13;9.07;;;4.93;;
72569;SDS011;60594;50.204;8.844;2023-09-30T05:56:40;11.45;;;5.72;;
72569;SDS011;60594;50.204;8.844;2023-09-30T05:59:09;12.90;;;6.32;;
72569;SDS011;60594;50.204;8.844;2023-09-30T06:01:35;12.18;;;6.20;;
72569;SDS011;60594;50.204;8.844;2023-09-30T06:04:02;11.77;;;5.63;;
72569;SDS011;60594;50.204;8.844;2023-09-30T06:06:28;11.80;;;5.63;;
72569;SDS011;60594;50.204;8.844;2023-09-30T06:08:56;11.90;;;6.10;;
72569;SDS011;60594;50.204;8.844;2023-09-30T06:11:26;12.60;;;5.72;;
72569;SDS011;60594;50.204;8.844;2023-09-30T06:13:54;13.77;;;6.03;;
72569;SDS011;60594;50.204;8.844;2023-09-30T06:16:21;10.80;;;5.60;;
72569;SDS011;60594;50.204;8.844;2023-09-30T06:18:50;13.18;;;5.70;;
72569;SDS011;60594;50.204;8.844;2023-09-30T06:21:16;13.20;;;6.13;;
72569;SDS011;60594;50.204;8.844;2023-09-30T06:23:47;10.45;;;5.30;;
72569;SDS011;60594;50.204;8.844;2023-09-30T06:26:14;11.07;;;6.03;;
72569;SDS011;60594;50.204;8.844;2023-09-30T06:28:44;10.32;;;5.53;;
72569;SDS011;60594;50.204;8.844;2023-09-30T06:31:11;12.93;;;5.50;;
72569;SDS011;60594;50.204;8.844;2023-09-30T06:33:38;13.52;;;6.22;;
72569;SDS011;60594;50.204;8.844;2023-09-30T06:38:36;13.35;;;5.65;;
72569;SDS011;60594;50.204;8.844;2023-09-30T06:41:04;11.88;;;5.60;;
72569;SDS011;60594;50.204;8.844;2023-09-30T06:43:31;12.55;;;5.63;;
72569;SDS011;60594;50.204;8.844;2023-09-30T06:45:59;9.60;;;4.97;;
72569;SDS011;60594;50.204;8.844;2023-09-30T06:48:25;9.57;;;4.72;;
72569;SDS011;60594;50.204;8.844;2023-09-30T06:50:52;11.43;;;5.47;;
72569;SDS011;60594;50.204;8.844;2023-09-30T06:53:19;10.18;;;4.80;;
72569;SDS011;60594;50.204;8.844;2023-09-30T06:55:45;10.38;;;5.32;;
72569;SDS011;60594;50.204;8.844;2023-09-30T06:58:12;11.90;;;5.00;;
72569;SDS011;60594;50.204;8.844;2023-09-30T07:00:40;13.13;;;5.57;;
72569;SDS011;60594;50.204;8.844;2023-09-30T07:03:07;11.85;;;5.85;;
72569;SDS011;60594;50.204;8.844;2023-09-30T07:05:35;9.75;;;5.63;;
72569;SDS011;60594;50.204;8.844;2023-09-30T07:08:02;11.52;;;5.60;;
72569;SDS011;60594;50.204;8.844;2023-09-30T07:10:29;12.43;;;5.95;;
72569;SDS011;60594;50.204;8.844;2023-09-30T07:12:55;11.48;;;5.53;;
72569;SDS011;60594;50.204;8.844;2023-09-30T07:15:22;13.95;;;6.35;;
72569;SDS011;60594;50.204;8.844;2023-09-30T07:17:49;13.00;;;7.25;;
72569;SDS011;60594;50.204;8.844;2023-09-30T07:20:15;12.65;;;5.93;;
72569;SDS011;60594;50.204;8.844;2023-09-30T07:22:41;11.77;;;5.90;;
72569;SDS011;60594;50.204;8.844;2023-09-30T07:25:08;11.85;;;5.85;;
72569;SDS011;60594;50.204;8.844;2023-09-30T07:27:35;13.85;;;6.22;;
72569;SDS011;60594;50.204;8.844;2023-09-30T07:30:01;12.90;;;6.38;;
72569;SDS011;60594;50.204;8.844;2023-09-30T07:32:29;11.52;;;5.68;;
72569;SDS011;60594;50.204;8.844;2023-09-30T07:34:55;13.85;;;6.38;;
72569;SDS011;60594;50.204;8.844;2023-09-30T07:37:22;14.52;;;6.38;;
72569;SDS011;60594;50.204;8.844;2023-09-30T07:39:48;11.77;;;5.55;;
72569;SDS011;60594;50.204;8.844;2023-09-30T07:42:15;11.75;;;5.70;;
72569;SDS011;60594;50.204;8.844;2023-09-30T07:44:43;11.27;;;5.50;;
72569;SDS011;60594;50.204;8.844;2023-09-30T07:47:09;11.65;;;5.68;;
72569;SDS011;60594;50.204;8.844;2023-09-30T07:49:37;12.80;;;5.32;;
72569;SDS011;60594;50.204;8.844;2023-09-30T07:52:04;11.45;;;5.18;;
72569;SDS011;60594;50.204;8.844;2023-09-30T07:54:30;9.23;;;4.93;;
72569;SDS011;60594;50.204;8.844;2023-09-30T07:56:57;12.48;;;5.25;;
72569;SDS011;60594;50.204;8.844;2023-09-30T07:59:25;12.88;;;5.00;;
72569;SDS011;60594;50.204;8.844;2023-09-30T08:01:51;9.20;;;4.65;;
72569;SDS011;60594;50.204;8.844;2023-09-30T08:04:19;10.95;;;5.07;;
72569;SDS011;60594;50.204;8.844;2023-09-30T08:06:45;10.93;;;4.82;;
72569;SDS011;60594;50.204;8.844;2023-09-30T08:09:13;10.07;;;4.95;;
72569;SDS011;60594;50.204;8.844;2023-09-30T08:11:40;12.18;;;5.30;;
72569;SDS011;60594;50.204;8.844;2023-09-30T08:14:06;10.75;;;4.47;;
72569;SDS011;60594;50.204;8.844;2023-09-30T08:16:35;6.82;;;3.85;;
72569;SDS011;60594;50.204;8.844;2023-09-30T08:19:03;8.65;;;3.80;;
72569;SDS011;60594;50.204;8.844;2023-09-30T08:21:30;10.13;;;4.45;;
72569;SDS011;60594;50.204;8.844;2023-09-30T08:23:56;6.32;;;3.50;;
72569;SDS011;60594;50.204;8.844;2023-09-30T08:26:23;9.57;;;3.60;;
72569;SDS011;60594;50.204;8.844;2023-09-30T08:28:50;10.45;;;4.13;;
72569;SDS011;60594;50.204;8.844;2023-09-30T08:31:16;8.82;;;3.47;;
72569;SDS011;60594;50.204;8.844;2023-09-30T08:33:43;8.10;;;3.75;;
72569;SDS011;60594;50.204;8.844;2023-09-30T08:36:11;10.02;;;4.88;;
72569;SDS011;60594;50.204;8.844;2023-09-30T08:38:38;9.63;;;4.00;;
72569;SDS011;60594;50.204;8.844;2023-09-30T08:41:06;10.32;;;4.22;;
72569;SDS011;60594;50.204;8.844;2023-09-30T08:43:37;8.48;;;4.40;;
72569;SDS011;60594;50.204;8.844;2023-09-30T08:46:05;9.10;;;4.20;;
72569;SDS011;60594;50.204;8.844;2023-09-30T08:48:33;8.68;;;3.60;;
72569;SDS011;60594;50.204;8.844;2023-09-30T08:51:00;11.25;;;3.90;;
72569;SDS011;60594;50.204;8.844;2023-09-30T08:53:29;6.93;;;3.15;;
72569;SDS011;60594;50.204;8.844;2023-09-30T08:55:56;9.68;;;3.70;;
72569;SDS011;60594;50.204;8.844;2023-09-30T08:58:26;8.25;;;3.47;;
72569;SDS011;60594;50.204;8.844;2023-09-30T09:00:55;10.82;;;4.13;;
72569;SDS011;60594;50.204;8.844;2023-09-30T09:03:22;8.80;;;3.90;;
72569;SDS011;60594;50.204;8.844;2023-09-30T09:05:53;8.07;;;3.17;;
72569;SDS011;60594;50.204;8.844;2023-09-30T09:08:24;7.13;;;3.00;;
72569;SDS011;60594;50.204;8.844;2023-09-30T09:13:22;7.68;;;3.33;;
72569;SDS011;60594;50.204;8.844;2023-09-30T09:15:50;9.18;;;3.53;;
72569;SDS011;60594;50.204;8.844;2023-09-30T09:18:31;7.68;;;3.40;;
72569;SDS011;60594;50.204;8.844;2023-09-30T09:21:12;9.40;;;3.15;;
72569;SDS011;60594;50.204;8.844;2023-09-30T09:23:41;6.72;;;2.65;;
72569;SDS011;60594;50.204;8.844;2023-09-30T09:26:09;10.60;;;3.20;;
72569;SDS011;60594;50.204;8.844;2023-09-30T09:28:50;8.77;;;2.55;;
72569;SDS011;60594;50.204;8.844;2023-09-30T09:31:20;7.93;;;3.17;;
72569;SDS011;60594;50.204;8.844;2023-09-30T09:33:48;7.53;;;2.88;;
72569;SDS011;60594;50.204;8.844;2023-09-30T09:36:16;9.13;;;3.35;;
72569;SDS011;60594;50.204;8.844;2023-09-30T09:41:16;6.50;;;3.03;;
72569;SDS011;60594;50.204;8.844;2023-09-30T09:43:43;6.15;;;2.85;;
72569;SDS011;60594;50.204;8.844;2023-09-30T09:46:13;9.68;;;3.72;;
72569;SDS011;60594;50.204;8.844;2023-09-30T09:48:40;8.02;;;3.63;;
72569;SDS011;60594;50.204;8.844;2023-09-30T09:51:06;7.85;;;2.90;;
72569;SDS011;60594;50.204;8.844;2023-09-30T09:53:35;7.07;;;3.40;;
72569;SDS011;60594;50.204;8.844;2023-09-30T09:56:03;7.05;;;3.00;;
72569;SDS011;60594;50.204;8.844;2023-09-30T09:58:32;10.18;;;3.25;;
72569;SDS011;60594;50.204;8.844;2023-09-30T10:01:01;7.95;;;3.17;;
72569;SDS011;60594;50.204;8.844;2023-09-30T10:05:54;7.60;;;3.47;;
72569;SDS011;60594;50.204;8.844;2023-09-30T10:08:21;6.88;;;2.65;;
72569;SDS011;60594;50.204;8.844;2023-09-30T10:11:06;6.93;;;2.92;;
72569;SDS011;60594;50.204;8.844;2023-09-30T10:16:46;7.38;;;2.72;;
72569;SDS011;60594;50.204;8.844;2023-09-30T10:19:14;8.27;;;3.17;;
72569;SDS011;60594;50.204;8.844;2023-09-30T10:22:19;7.78;;;2.72;;
72569;SDS011;60594;50.204;8.844;2023-09-30T10:24:42;7.07;;;2.55;;
72569;SDS011;60594;50.204;8.844;2023-09-30T10:29:48;5.97;;;2.20;;
72569;SDS011;60594;50.204;8.844;2023-09-30T10:32:20;7.13;;;2.72;;
72569;SDS011;60594;50.204;8.844;2023-09-30T10:34:47;8.05;;;2.33;;
72569;SDS011;60594;50.204;8.844;2023-09-30T10:37:22;6.30;;;2.42;;
72569;SDS011;60594;50.204;8.844;2023-09-30T10:39:53;6.22;;;2.17;;
72569;SDS011;60594;50.204;8.844;2023-09-30T10:53:26;8.00;;;2.47;;
72569;SDS011;60594;50.204;8.844;2023-09-30T10:55:54;7.30;;;2.47;;
72569;SDS011;60594;50.204;8.844;2023-09-30T10:58:38;6.68;;;2.40;;
72569;SDS011;60594;50.204;8.844;2023-09-30T11:01:05;7.28;;;2.50;;
72569;SDS011;60594;50.204;8.844;2023-09-30T11:03:32;6.72;;;2.70;;
72569;SDS011;60594;50.204;8.844;2023-09-30T11:05:58;4.88;;;2.38;;
72569;SDS011;60594;50.204;8.844;2023-09-30T11:08:25;6.03;;;2.50;;
72569;SDS011;60594;50.204;8.844;2023-09-30T11:10:58;6.93;;;2.85;;
72569;SDS011;60594;50.204;8.844;2023-09-30T11:13:36;6.15;;;2.30;;
72569;SDS011;60594;50.204;8.844;2023-09-30T11:16:03;5.78;;;2.72;;
72569;SDS011;60594;50.204;8.844;2023-09-30T11:18:33;6.20;;;2.25;;
72569;SDS011;60594;50.204;8.844;2023-09-30T11:23:32;5.10;;;2.10;;
72569;SDS011;60594;50.204;8.844;2023-09-30T11:25:59;9.68;;;2.65;;
72569;SDS011;60594;50.204;8.844;2023-09-30T11:28:34;6.22;;;2.13;;
72569;SDS011;60594;50.204;8.844;2023-09-30T11:31:02;7.40;;;2.70;;
72569;SDS011;60594;50.204;8.844;2023-09-30T11:33:29;6.18;;;2.53;;
72569;SDS011;60594;50.204;8.844;2023-09-30T11:36:02;5.93;;;2.13;;
72569;SDS011;60594;50.204;8.844;2023-09-30T11:38:32;7.28;;;2.30;;
72569;SDS011;60594;50.204;8.844;2023-09-30T11:41:04;6.72;;;2.85;;
72569;SDS011;60594;50.204;8.844;2023-09-30T11:43:33;7.32;;;2.63;;
72569;SDS011;60594;50.204;8.844;2023-09-30T11:46:04;7.40;;;2.38;;
72569;SDS011;60594;50.204;8.844;2023-09-30T11:48:35;7.03;;;2.15;;
72569;SDS011;60594;50.204;8.844;2023-09-30T11:53:30;6.35;;;2.30;;
72569;SDS011;60594;50.204;8.844;2023-09-30T11:58:28;5.75;;;2.40;;
72569;SDS011;60594;50.204;8.844;2023-09-30T12:00:55;7.65;;;2.70;;
72569;SDS011;60594;50.204;8.844;2023-09-30T12:03:26;6.28;;;2.60;;
72569;SDS011;60594;50.204;8.844;2023-09-30T12:05:57;8.45;;;2.63;;
72569;SDS011;60594;50.204;8.844;2023-09-30T12:10:50;5.45;;;2.45;;
72569;SDS011;60594;50.204;8.844;2023-09-30T12:13:17;7.30;;;3.00;;
72569;SDS011;60594;50.204;8.844;2023-09-30T12:15:43;6.60;;;2.72;;
72569;SDS011;60594;50.204;8.844;2023-09-30T12:18:10;5.70;;;2.67;;
72569;SDS011;60594;50.204;8.844;2023-09-30T12:20:39;5.95;;;2.45;;
72569;SDS011;60594;50.204;8.844;2023-09-30T12:23:07;7.28;;;2.10;;
72569;SDS011;60594;50.204;8.844;2023-09-30T12:25:34;6.53;;;2.28;;
72569;SDS011;60594;50.204;8.844;2023-09-30T12:28:00;5.78;;;2.20;;
72569;SDS011;60594;50.204;8.844;2023-09-30T12:30:27;5.38;;;2.40;;
72569;SDS011;60594;50.204;8.844;2023-09-30T12:32:54;6.32;;;2.45;;
72569;SDS011;60594;50.204;8.844;2023-09-30T12:35:21;7.75;;;2.92;;
72569;SDS011;60594;50.204;8.844;2023-09-30T12:37:47;6.68;;;2.25;;
72569;SDS011;60594;50.204;8.844;2023-09-30T12:40:14;6.47;;;2.40;;
72569;SDS011;60594;50.204;8.844;2023-09-30T12:42:43;7.00;;;2.83;;
72569;SDS011;60594;50.204;8.844;2023-09-30T12:45:11;8.23;;;2.60;;
72569;SDS011;60594;50.204;8.844;2023-09-30T12:47:38;6.70;;;2.38;;
72569;SDS011;60594;50.204;8.844;2023-09-30T12:50:05;7.05;;;2.67;;
72569;SDS011;60594;50.204;8.844;2023-09-30T12:52:35;5.53;;;2.38;;
72569;SDS011;60594;50.204;8.844;2023-09-30T12:55:02;5.90;;;2.63;;
72569;SDS011;60594;50.204;8.844;2023-09-30T12:57:28;5.45;;;2.58;;
72569;SDS011;60594;50.204;8.844;2023-09-30T12:59:55;6.20;;;2.45;;
72569;SDS011;60594;50.204;8.844;2023-09-30T13:02:22;7.85;;;2.40;;
72569;SDS011;60594;50.204;8.844;2023-09-30T13:04:48;6.22;;;2.58;;
72569;SDS011;60594;50.204;8.844;2023-09-30T13:07:15;7.15;;;2.40;;
72569;SDS011;60594;50.204;8.844;2023-09-30T13:09:42;5.35;;;2.58;;
72569;SDS011;60594;50.204;8.844;2023-09-30T13:12:09;10.30;;;3.22;;
72569;SDS011;60594;50.204;8.844;2023-09-30T13:14:36;5.65;;;2.33;;
72569;SDS011;60594;50.204;8.844;2023-09-30T13:17:02;6.75;;;2.50;;
72569;SDS011;60594;50.204;8.844;2023-09-30T13:19:30;5.22;;;2.30;;
72569;SDS011;60594;50.204;8.844;2023-09-30T13:21:56;6.65;;;2.30;;
72569;SDS011;60594;50.204;8.844;2023-09-30T13:24:23;6.18;;;2.50;;
72569;SDS011;60594;50.204;8.844;2023-09-30T13:26:49;9.20;;;2.47;;
72569;SDS011;60594;50.204;8.844;2023-09-30T13:29:18;7.18;;;2.28;;
72569;SDS011;60594;50.204;8.844;2023-09-30T13:31:45;6.68;;;3.05;;
72569;SDS011;60594;50.204;8.844;2023-09-30T13:34:11;6.80;;;2.60;;
72569;SDS011;60594;50.204;8.844;2023-09-30T13:36:38;8.00;;;2.30;;
72569;SDS011;60594;50.204;8.844;2023-09-30T13:39:05;6.63;;;2.63;;
72569;SDS011;60594;50.204;8.844;2023-09-30T13:41:39;5.57;;;2.20;;
72569;SDS011;60594;50.204;8.844;2023-09-30T13:44:06;6.32;;;2.40;;
72569;SDS011;60594;50.204;8.844;2023-09-30T13:46:33;6.30;;;2.53;;
72569;SDS011;60594;50.204;8.844;2023-09-30T13:48:59;6.70;;;2.47;;
72569;SDS011;60594;50.204;8.844;2023-09-30T13:51:26;6.68;;;2.40;;
72569;SDS011;60594;50.204;8.844;2023-09-30T13:53:52;6.15;;;2.72;;
72569;SDS011;60594;50.204;8.844;2023-09-30T13:56:22;6.38;;;2.45;;
72569;SDS011;60594;50.204;8.844;2023-09-30T13:58:48;4.68;;;2.00;;
72569;SDS011;60594;50.204;8.844;2023-09-30T14:01:15;8.30;;;2.50;;
72569;SDS011;60594;50.204;8.844;2023-09-30T14:03:41;4.90;;;2.33;;
72569;SDS011;60594;50.204;8.844;2023-09-30T14:06:10;5.65;;;2.25;;
72569;SDS011;60594;50.204;8.844;2023-09-30T14:08:38;7.05;;;3.13;;
72569;SDS011;60594;50.204;8.844;2023-09-30T14:11:05;5.90;;;2.13;;
72569;SDS011;60594;50.204;8.844;2023-09-30T14:13:31;7.60;;;2.88;;
72569;SDS011;60594;50.204;8.844;2023-09-30T14:15:58;6.13;;;2.58;;
72569;SDS011;60594;50.204;8.844;2023-09-30T14:18:24;6.65;;;2.55;;
72569;SDS011;60594;50.204;8.844;2023-09-30T14:20:51;7.53;;;2.80;;
72569;SDS011;60594;50.204;8.844;2023-09-30T14:23:17;5.85;;;2.30;;
72569;SDS011;60594;50.204;8.844;2023-09-30T14:25:44;5.18;;;2.20;;
72569;SDS011;60594;50.204;8.844;2023-09-30T14:28:10;5.97;;;2.20;;
72569;SDS011;60594;50.204;8.844;2023-09-30T14:30:37;5.30;;;2.20;;
72569;SDS011;60594;50.204;8.844;2023-09-30T14:33:03;6.30;;;2.33;;
72569;SDS011;60594;50.204;8.844;2023-09-30T14:35:32;6.30;;;1.95;;
72569;SDS011;60594;50.204;8.844;2023-09-30T14:38:02;5.53;;;2.28;;
72569;SDS011;60594;50.204;8.844;2023-09-30T14:40:29;7.32;;;2.50;;
72569;SDS011;60594;50.204;8.844;2023-09-30T14:42:55;6.13;;;2.30;;
72569;SDS011;60594;50.204;8.844;2023-09-30T14:45:22;6.05;;;2.20;;
72569;SDS011;60594;50.204;8.844;2023-09-30T14:47:48;5.93;;;2.30;;
72569;SDS011;60594;50.204;8.844;2023-09-30T14:50:15;6.97;;;1.98;;
72569;SDS011;60594;50.204;8.844;2023-09-30T14:52:42;6.32;;;2.40;;
72569;SDS011;60594;50.204;8.844;2023-09-30T14:55:08;5.65;;;2.10;;
72569;SDS011;60594;50.204;8.844;2023-09-30T14:57:35;6.30;;;2.65;;
72569;SDS011;60594;50.204;8.844;2023-09-30T15:00:01;6.55;;;2.30;;
72569;SDS011;60594;50.204;8.844;2023-09-30T15:02:28;7.00;;;2.20;;
72569;SDS011;60594;50.204;8.844;2023-09-30T15:04:55;4.50;;;2.00;;
72569;SDS011;60594;50.204;8.844;2023-09-30T15:07:21;4.05;;;1.90;;
72569;SDS011;60594;50.204;8.844;2023-09-30T15:09:48;4.90;;;2.40;;
72569;SDS011;60594;50.204;8.844;2023-09-30T15:12:15;5.75;;;2.38;;
72569;SDS011;60594;50.204;8.844;2023-09-30T15:14:42;6.32;;;2.15;;
72569;SDS011;60594;50.204;8.844;2023-09-30T15:17:08;6.18;;;2.10;;
72569;SDS011;60594;50.204;8.844;2023-09-30T15:19:35;7.18;;;3.05;;
72569;SDS011;60594;50.204;8.844;2023-09-30T15:22:01;5.97;;;2.15;;
72569;SDS011;60594;50.204;8.844;2023-09-30T15:24:27;6.22;;;1.95;;
72569;SDS011;60594;50.204;8.844;2023-09-30T15:26:54;5.63;;;2.28;;
72569;SDS011;60594;50.204;8.844;2023-09-30T15:29:21;5.47;;;1.95;;
72569;SDS011;60594;50.204;8.844;2023-09-30T15:31:48;5.60;;;2.45;;
72569;SDS011;60594;50.204;8.844;2023-09-30T15:34:14;6.47;;;2.10;;
72569;SDS011;60594;50.204;8.844;2023-09-30T15:36:41;5.57;;;1.92;;
72569;SDS011;60594;50.204;8.844;2023-09-30T15:39:07;4.90;;;2.17;;